sensor_id;sensor_type;location;lat;lon;timestamp;temperature;humidity
728;DHT22;347;48.780;9.158;2023-05-29T00:00:17;18.80;15.70
728;DHT22;347;48.780;9.158;2023-05-29T00:02:43;18.80;15.70
728;DHT22;347;48.780;9.158;2023-05-29T00:05:13;18.80;15.80
728;DHT22;347;48.780;9.158;2023-05-29T00:07:40;18.80;15.70
728;DHT22;347;48.780;9.158;2023-05-29T00:10:07;18.80;15.90
728;DHT22;347;48.780;9.158;2023-05-29T00:12:33;18.70;16.00
728;DHT22;347;48.780;9.158;2023-05-29T00:14:58;18.70;16.00
728;DHT22;347;48.780;9.158;2023-05-29T00:17:24;18.70;16.00
728;DHT22;347;48.780;9.158;2023-05-29T00:19:50;18.70;16.00
728;DHT22;347;48.780;9.158;2023-05-29T00:22:16;18.70;16.20
728;DHT22;347;48.780;9.158;2023-05-29T00:24:42;18.70;16.30
728;DHT22;347;48.780;9.158;2023-05-29T00:27:08;18.70;16.20
728;DHT22;347;48.780;9.158;2023-05-29T00:29:34;18.60;16.20
728;DHT22;347;48.780;9.158;2023-05-29T00:32:01;18.70;16.10
728;DHT22;347;48.780;9.158;2023-05-29T00:34:27;18.60;16.00
728;DHT22;347;48.780;9.158;2023-05-29T00:36:53;18.50;16.00
728;DHT22;347;48.780;9.158;2023-05-29T00:39:20;18.50;16.20
728;DHT22;347;48.780;9.158;2023-05-29T00:41:45;18.50;16.40
728;DHT22;347;48.780;9.158;2023-05-29T00:44:11;18.50;16.40
728;DHT22;347;48.780;9.158;2023-05-29T00:46:37;18.50;16.60
728;DHT22;347;48.780;9.158;2023-05-29T00:49:04;18.40;16.90
728;DHT22;347;48.780;9.158;2023-05-29T00:51:31;18.50;16.40
728;DHT22;347;48.780;9.158;2023-05-29T00:53:57;18.40;16.60
728;DHT22;347;48.780;9.158;2023-05-29T00:56:24;18.40;16.90
728;DHT22;347;48.780;9.158;2023-05-29T00:58:51;18.30;16.50
728;DHT22;347;48.780;9.158;2023-05-29T01:01:18;18.30;16.50
728;DHT22;347;48.780;9.158;2023-05-29T01:03:44;18.20;16.70
728;DHT22;347;48.780;9.158;2023-05-29T01:06:10;18.10;16.90
728;DHT22;347;48.780;9.158;2023-05-29T01:08:36;18.10;16.90
728;DHT22;347;48.780;9.158;2023-05-29T01:11:17;18.00;17.10
728;DHT22;347;48.780;9.158;2023-05-29T01:13:48;18.00;17.10
728;DHT22;347;48.780;9.158;2023-05-29T01:16:35;18.00;17.10
728;DHT22;347;48.780;9.158;2023-05-29T01:19:15;18.00;17.10
728;DHT22;347;48.780;9.158;2023-05-29T01:24:57;18.00;17.10
728;DHT22;347;48.780;9.158;2023-05-29T01:27:24;18.00;17.10
728;DHT22;347;48.780;9.158;2023-05-29T01:29:51;17.80;17.20
728;DHT22;347;48.780;9.158;2023-05-29T01:32:19;17.90;17.40
728;DHT22;347;48.780;9.158;2023-05-29T01:34:45;17.80;17.30
728;DHT22;347;48.780;9.158;2023-05-29T01:37:11;17.80;17.40
728;DHT22;347;48.780;9.158;2023-05-29T01:39:36;17.70;17.50
728;DHT22;347;48.780;9.158;2023-05-29T01:42:03;17.80;17.60
728;DHT22;347;48.780;9.158;2023-05-29T01:44:30;17.80;17.50
728;DHT22;347;48.780;9.158;2023-05-29T01:46:56;17.70;17.70
728;DHT22;347;48.780;9.158;2023-05-29T01:49:24;17.70;17.60
728;DHT22;347;48.780;9.158;2023-05-29T01:51:50;17.80;17.80
728;DHT22;347;48.780;9.158;2023-05-29T01:54:16;17.80;17.80
728;DHT22;347;48.780;9.158;2023-05-29T01:56:42;17.80;17.80
728;DHT22;347;48.780;9.158;2023-05-29T01:59:08;17.80;17.80
728;DHT22;347;48.780;9.158;2023-05-29T02:01:34;17.80;17.70
728;DHT22;347;48.780;9.158;2023-05-29T02:03:59;17.80;17.70
728;DHT22;347;48.780;9.158;2023-05-29T02:06:25;17.80;17.70
728;DHT22;347;48.780;9.158;2023-05-29T02:08:51;17.80;18.00
728;DHT22;347;48.780;9.158;2023-05-29T02:11:16;17.80;18.10
728;DHT22;347;48.780;9.158;2023-05-29T02:13:42;17.80;18.10
728;DHT22;347;48.780;9.158;2023-05-29T02:16:08;17.70;18.10
728;DHT22;347;48.780;9.158;2023-05-29T02:18:34;17.70;18.40
728;DHT22;347;48.780;9.158;2023-05-29T02:21:02;17.70;18.30
728;DHT22;347;48.780;9.158;2023-05-29T02:23:28;17.70;18.30
728;DHT22;347;48.780;9.158;2023-05-29T02:25:53;17.70;18.40
728;DHT22;347;48.780;9.158;2023-05-29T02:28:19;17.60;18.30
728;DHT22;347;48.780;9.158;2023-05-29T02:30:45;17.60;18.30
728;DHT22;347;48.780;9.158;2023-05-29T02:33:10;17.60;18.30
728;DHT22;347;48.780;9.158;2023-05-29T02:35:36;17.50;18.20
728;DHT22;347;48.780;9.158;2023-05-29T02:38:02;17.60;18.40
728;DHT22;347;48.780;9.158;2023-05-29T02:40:27;17.60;18.40
728;DHT22;347;48.780;9.158;2023-05-29T02:42:53;17.60;18.50
728;DHT22;347;48.780;9.158;2023-05-29T02:45:19;17.60;18.60
728;DHT22;347;48.780;9.158;2023-05-29T02:47:44;17.60;18.70
728;DHT22;347;48.780;9.158;2023-05-29T02:50:10;17.50;19.00
728;DHT22;347;48.780;9.158;2023-05-29T02:52:36;17.30;19.40
728;DHT22;347;48.780;9.158;2023-05-29T02:55:05;17.00;19.70
728;DHT22;347;48.780;9.158;2023-05-29T02:57:31;16.60;20.60
728;DHT22;347;48.780;9.158;2023-05-29T02:59:57;16.40;21.00
728;DHT22;347;48.780;9.158;2023-05-29T03:02:23;16.30;21.60
728;DHT22;347;48.780;9.158;2023-05-29T03:04:49;16.10;21.80
728;DHT22;347;48.780;9.158;2023-05-29T03:07:16;16.00;22.20
728;DHT22;347;48.780;9.158;2023-05-29T03:09:42;16.00;22.20
728;DHT22;347;48.780;9.158;2023-05-29T03:12:07;16.20;22.30
728;DHT22;347;48.780;9.158;2023-05-29T03:14:33;16.30;21.80
728;DHT22;347;48.780;9.158;2023-05-29T03:17:05;16.40;21.60
728;DHT22;347;48.780;9.158;2023-05-29T03:19:31;16.50;21.20
728;DHT22;347;48.780;9.158;2023-05-29T03:21:56;16.60;20.90
728;DHT22;347;48.780;9.158;2023-05-29T03:24:22;16.70;20.70
728;DHT22;347;48.780;9.158;2023-05-29T03:26:49;16.80;20.60
728;DHT22;347;48.780;9.158;2023-05-29T03:29:15;16.90;20.40
728;DHT22;347;48.780;9.158;2023-05-29T03:31:41;16.90;20.20
728;DHT22;347;48.780;9.158;2023-05-29T03:34:07;16.90;20.00
728;DHT22;347;48.780;9.158;2023-05-29T03:36:33;16.90;19.90
728;DHT22;347;48.780;9.158;2023-05-29T03:39:02;16.90;20.00
728;DHT22;347;48.780;9.158;2023-05-29T03:41:27;16.80;20.70
728;DHT22;347;48.780;9.158;2023-05-29T03:43:53;16.50;21.30
728;DHT22;347;48.780;9.158;2023-05-29T03:46:19;16.20;22.00
728;DHT22;347;48.780;9.158;2023-05-29T03:48:44;16.00;22.60
728;DHT22;347;48.780;9.158;2023-05-29T03:51:10;15.80;22.90
728;DHT22;347;48.780;9.158;2023-05-29T03:53:36;15.80;23.20
728;DHT22;347;48.780;9.158;2023-05-29T03:56:02;15.70;23.30
728;DHT22;347;48.780;9.158;2023-05-29T03:58:27;15.70;23.50
728;DHT22;347;48.780;9.158;2023-05-29T04:00:53;15.70;24.10
728;DHT22;347;48.780;9.158;2023-05-29T04:03:19;15.80;23.20
728;DHT22;347;48.780;9.158;2023-05-29T04:05:45;15.80;23.30
728;DHT22;347;48.780;9.158;2023-05-29T04:08:10;16.00;22.90
728;DHT22;347;48.780;9.158;2023-05-29T04:10:38;16.10;22.50
728;DHT22;347;48.780;9.158;2023-05-29T04:13:04;16.30;22.40
728;DHT22;347;48.780;9.158;2023-05-29T04:15:31;16.40;22.30
728;DHT22;347;48.780;9.158;2023-05-29T04:17:59;16.50;21.90
728;DHT22;347;48.780;9.158;2023-05-29T04:20:24;16.60;21.70
728;DHT22;347;48.780;9.158;2023-05-29T04:22:51;16.70;21.70
728;DHT22;347;48.780;9.158;2023-05-29T04:25:16;16.70;21.50
728;DHT22;347;48.780;9.158;2023-05-29T04:27:43;16.80;21.40
728;DHT22;347;48.780;9.158;2023-05-29T04:30:14;16.80;21.40
728;DHT22;347;48.780;9.158;2023-05-29T04:32:40;16.90;21.40
728;DHT22;347;48.780;9.158;2023-05-29T04:35:06;16.90;21.30
728;DHT22;347;48.780;9.158;2023-05-29T04:37:32;16.90;21.30
728;DHT22;347;48.780;9.158;2023-05-29T04:40:06;16.90;21.20
728;DHT22;347;48.780;9.158;2023-05-29T04:42:36;17.00;21.30
728;DHT22;347;48.780;9.158;2023-05-29T04:45:03;16.70;21.50
728;DHT22;347;48.780;9.158;2023-05-29T04:47:30;16.60;22.00
728;DHT22;347;48.780;9.158;2023-05-29T04:50:00;16.50;22.40
728;DHT22;347;48.780;9.158;2023-05-29T04:52:26;16.40;22.60
728;DHT22;347;48.780;9.158;2023-05-29T04:54:53;16.40;22.90
728;DHT22;347;48.780;9.158;2023-05-29T04:57:19;16.50;22.80
728;DHT22;347;48.780;9.158;2023-05-29T04:59:44;16.60;22.40
728;DHT22;347;48.780;9.158;2023-05-29T05:02:10;16.60;22.40
728;DHT22;347;48.780;9.158;2023-05-29T05:04:36;16.70;22.50
728;DHT22;347;48.780;9.158;2023-05-29T05:07:03;16.70;22.50
728;DHT22;347;48.780;9.158;2023-05-29T05:09:29;16.80;22.20
728;DHT22;347;48.780;9.158;2023-05-29T05:11:55;16.90;22.10
728;DHT22;347;48.780;9.158;2023-05-29T05:14:21;17.00;22.00
728;DHT22;347;48.780;9.158;2023-05-29T05:16:47;17.00;21.60
728;DHT22;347;48.780;9.158;2023-05-29T05:19:12;16.90;21.90
728;DHT22;347;48.780;9.158;2023-05-29T05:21:38;16.90;21.80
728;DHT22;347;48.780;9.158;2023-05-29T05:24:04;16.90;21.60
728;DHT22;347;48.780;9.158;2023-05-29T05:26:30;17.00;21.10
728;DHT22;347;48.780;9.158;2023-05-29T05:28:55;16.90;21.20
728;DHT22;347;48.780;9.158;2023-05-29T05:31:21;17.00;21.80
728;DHT22;347;48.780;9.158;2023-05-29T05:33:47;17.00;21.10
728;DHT22;347;48.780;9.158;2023-05-29T05:36:14;17.10;20.90
728;DHT22;347;48.780;9.158;2023-05-29T05:38:39;17.20;21.10
728;DHT22;347;48.780;9.158;2023-05-29T05:41:05;17.20;20.70
728;DHT22;347;48.780;9.158;2023-05-29T05:43:31;17.20;21.00
728;DHT22;347;48.780;9.158;2023-05-29T05:45:56;17.20;20.50
728;DHT22;347;48.780;9.158;2023-05-29T05:48:22;17.00;20.80
728;DHT22;347;48.780;9.158;2023-05-29T05:50:47;17.10;21.60
728;DHT22;347;48.780;9.158;2023-05-29T05:53:13;17.00;21.10
728;DHT22;347;48.780;9.158;2023-05-29T05:55:39;17.10;21.20
728;DHT22;347;48.780;9.158;2023-05-29T05:58:04;17.20;21.80
728;DHT22;347;48.780;9.158;2023-05-29T06:00:30;17.30;21.60
728;DHT22;347;48.780;9.158;2023-05-29T06:02:55;17.40;21.50
728;DHT22;347;48.780;9.158;2023-05-29T06:05:21;17.40;20.90
728;DHT22;347;48.780;9.158;2023-05-29T06:07:47;17.40;21.10
728;DHT22;347;48.780;9.158;2023-05-29T06:10:12;17.50;20.60
728;DHT22;347;48.780;9.158;2023-05-29T06:12:38;17.50;21.60
728;DHT22;347;48.780;9.158;2023-05-29T06:15:04;17.50;21.30
728;DHT22;347;48.780;9.158;2023-05-29T06:17:30;17.60;20.90
728;DHT22;347;48.780;9.158;2023-05-29T06:19:55;17.60;20.20
728;DHT22;347;48.780;9.158;2023-05-29T06:22:21;17.60;20.30
728;DHT22;347;48.780;9.158;2023-05-29T06:24:47;17.70;20.40
728;DHT22;347;48.780;9.158;2023-05-29T06:27:12;17.70;20.30
728;DHT22;347;48.780;9.158;2023-05-29T06:29:38;17.70;20.80
728;DHT22;347;48.780;9.158;2023-05-29T06:32:04;17.70;20.20
728;DHT22;347;48.780;9.158;2023-05-29T06:34:30;17.80;20.20
728;DHT22;347;48.780;9.158;2023-05-29T06:36:56;17.80;20.20
728;DHT22;347;48.780;9.158;2023-05-29T06:39:21;17.80;20.20
728;DHT22;347;48.780;9.158;2023-05-29T06:41:47;17.80;20.20
728;DHT22;347;48.780;9.158;2023-05-29T06:44:13;17.90;20.30
728;DHT22;347;48.780;9.158;2023-05-29T06:46:38;18.00;19.90
728;DHT22;347;48.780;9.158;2023-05-29T06:49:04;18.00;20.10
728;DHT22;347;48.780;9.158;2023-05-29T06:51:29;18.00;20.30
728;DHT22;347;48.780;9.158;2023-05-29T06:53:56;18.00;20.30
728;DHT22;347;48.780;9.158;2023-05-29T06:56:21;18.00;20.30
728;DHT22;347;48.780;9.158;2023-05-29T06:58:47;18.00;20.30
728;DHT22;347;48.780;9.158;2023-05-29T07:01:13;18.10;20.40
728;DHT22;347;48.780;9.158;2023-05-29T07:03:38;18.10;20.40
728;DHT22;347;48.780;9.158;2023-05-29T07:06:04;18.20;20.90
728;DHT22;347;48.780;9.158;2023-05-29T07:08:30;18.20;21.20
728;DHT22;347;48.780;9.158;2023-05-29T07:10:56;18.20;21.30
728;DHT22;347;48.780;9.158;2023-05-29T07:13:21;18.10;21.70
728;DHT22;347;48.780;9.158;2023-05-29T07:15:50;18.10;22.00
728;DHT22;347;48.780;9.158;2023-05-29T07:18:16;18.10;22.20
728;DHT22;347;48.780;9.158;2023-05-29T07:20:42;18.10;22.60
728;DHT22;347;48.780;9.158;2023-05-29T07:23:07;18.20;22.50
728;DHT22;347;48.780;9.158;2023-05-29T07:25:33;18.20;22.40
728;DHT22;347;48.780;9.158;2023-05-29T07:27:59;18.30;22.20
728;DHT22;347;48.780;9.158;2023-05-29T07:30:25;18.30;21.70
728;DHT22;347;48.780;9.158;2023-05-29T07:32:50;18.40;20.80
728;DHT22;347;48.780;9.158;2023-05-29T07:35:16;18.40;20.60
728;DHT22;347;48.780;9.158;2023-05-29T07:37:41;18.40;20.60
728;DHT22;347;48.780;9.158;2023-05-29T07:40:07;18.40;20.00
728;DHT22;347;48.780;9.158;2023-05-29T07:42:33;18.50;19.40
728;DHT22;347;48.780;9.158;2023-05-29T07:44:59;18.50;19.50
728;DHT22;347;48.780;9.158;2023-05-29T07:47:25;18.50;19.20
728;DHT22;347;48.780;9.158;2023-05-29T07:49:50;18.60;19.00
728;DHT22;347;48.780;9.158;2023-05-29T07:52:17;18.50;19.10
728;DHT22;347;48.780;9.158;2023-05-29T07:54:43;18.60;18.70
728;DHT22;347;48.780;9.158;2023-05-29T07:57:09;18.60;18.90
728;DHT22;347;48.780;9.158;2023-05-29T07:59:40;18.80;18.90
728;DHT22;347;48.780;9.158;2023-05-29T08:02:07;18.90;18.70
728;DHT22;347;48.780;9.158;2023-05-29T08:04:33;19.00;18.70
728;DHT22;347;48.780;9.158;2023-05-29T08:07:02;19.10;18.40
728;DHT22;347;48.780;9.158;2023-05-29T08:09:31;19.10;18.10
728;DHT22;347;48.780;9.158;2023-05-29T08:11:56;19.20;18.00
728;DHT22;347;48.780;9.158;2023-05-29T08:14:22;19.20;17.70
728;DHT22;347;48.780;9.158;2023-05-29T08:16:48;19.20;17.70
728;DHT22;347;48.780;9.158;2023-05-29T08:19:13;19.30;17.20
728;DHT22;347;48.780;9.158;2023-05-29T08:21:39;19.50;16.50
728;DHT22;347;48.780;9.158;2023-05-29T08:24:05;19.60;15.80
728;DHT22;347;48.780;9.158;2023-05-29T08:26:31;19.80;16.40
728;DHT22;347;48.780;9.158;2023-05-29T08:28:57;19.90;16.60
728;DHT22;347;48.780;9.158;2023-05-29T08:31:22;20.00;16.60
728;DHT22;347;48.780;9.158;2023-05-29T08:33:51;20.10;16.30
728;DHT22;347;48.780;9.158;2023-05-29T08:36:17;20.10;15.90
728;DHT22;347;48.780;9.158;2023-05-29T08:38:43;20.30;16.00
728;DHT22;347;48.780;9.158;2023-05-29T08:41:11;20.30;15.50
728;DHT22;347;48.780;9.158;2023-05-29T08:43:41;20.40;15.70
728;DHT22;347;48.780;9.158;2023-05-29T08:46:08;20.50;15.80
728;DHT22;347;48.780;9.158;2023-05-29T08:48:36;20.50;16.00
728;DHT22;347;48.780;9.158;2023-05-29T08:51:04;20.60;15.80
728;DHT22;347;48.780;9.158;2023-05-29T08:53:30;20.70;15.50
728;DHT22;347;48.780;9.158;2023-05-29T08:55:58;20.70;15.50
728;DHT22;347;48.780;9.158;2023-05-29T08:58:24;20.70;15.60
728;DHT22;347;48.780;9.158;2023-05-29T09:00:51;20.70;15.70
728;DHT22;347;48.780;9.158;2023-05-29T09:03:17;20.80;15.80
728;DHT22;347;48.780;9.158;2023-05-29T09:05:44;20.90;15.70
728;DHT22;347;48.780;9.158;2023-05-29T09:08:10;20.90;16.20
728;DHT22;347;48.780;9.158;2023-05-29T09:10:41;20.90;15.90
728;DHT22;347;48.780;9.158;2023-05-29T09:13:09;20.90;16.20
728;DHT22;347;48.780;9.158;2023-05-29T09:15:35;20.90;16.50
728;DHT22;347;48.780;9.158;2023-05-29T09:18:02;20.90;16.50
728;DHT22;347;48.780;9.158;2023-05-29T09:20:29;20.90;16.60
728;DHT22;347;48.780;9.158;2023-05-29T09:22:59;20.90;16.70
728;DHT22;347;48.780;9.158;2023-05-29T09:25:30;20.90;17.00
728;DHT22;347;48.780;9.158;2023-05-29T09:30:45;21.00;16.70
728;DHT22;347;48.780;9.158;2023-05-29T09:33:14;21.10;16.60
728;DHT22;347;48.780;9.158;2023-05-29T09:35:45;21.40;15.50
728;DHT22;347;48.780;9.158;2023-05-29T09:38:15;21.50;15.40
728;DHT22;347;48.780;9.158;2023-05-29T09:40:41;21.50;15.20
728;DHT22;347;48.780;9.158;2023-05-29T09:43:18;21.60;14.90
728;DHT22;347;48.780;9.158;2023-05-29T09:45:46;21.80;15.10
728;DHT22;347;48.780;9.158;2023-05-29T09:48:16;22.00;14.50
728;DHT22;347;48.780;9.158;2023-05-29T09:50:43;22.10;14.50
728;DHT22;347;48.780;9.158;2023-05-29T09:55:48;22.60;13.60
728;DHT22;347;48.780;9.158;2023-05-29T09:58:17;22.80;13.40
728;DHT22;347;48.780;9.158;2023-05-29T10:00:44;23.00;13.00
728;DHT22;347;48.780;9.158;2023-05-29T10:03:13;23.10;13.10
728;DHT22;347;48.780;9.158;2023-05-29T10:05:43;23.30;12.30
728;DHT22;347;48.780;9.158;2023-05-29T10:08:12;23.40;12.40
728;DHT22;347;48.780;9.158;2023-05-29T10:10:42;23.50;12.10
728;DHT22;347;48.780;9.158;2023-05-29T10:13:11;23.60;12.00
728;DHT22;347;48.780;9.158;2023-05-29T10:15:37;23.70;10.00
728;DHT22;347;48.780;9.158;2023-05-29T10:18:13;23.90;10.60
728;DHT22;347;48.780;9.158;2023-05-29T10:20:42;24.00;9.90
728;DHT22;347;48.780;9.158;2023-05-29T10:23:09;24.10;9.50
728;DHT22;347;48.780;9.158;2023-05-29T10:25:36;24.30;9.30
728;DHT22;347;48.780;9.158;2023-05-29T10:28:02;24.40;8.50
728;DHT22;347;48.780;9.158;2023-05-29T10:30:36;24.60;8.40
728;DHT22;347;48.780;9.158;2023-05-29T10:36:14;24.70;7.20
728;DHT22;347;48.780;9.158;2023-05-29T10:38:44;24.60;7.30
728;DHT22;347;48.780;9.158;2023-05-29T10:43:56;24.60;7.30
728;DHT22;347;48.780;9.158;2023-05-29T10:49:19;24.70;6.80
728;DHT22;347;48.780;9.158;2023-05-29T10:51:45;24.90;6.30
728;DHT22;347;48.780;9.158;2023-05-29T10:54:11;24.90;6.40
728;DHT22;347;48.780;9.158;2023-05-29T10:56:39;24.90;6.40
728;DHT22;347;48.780;9.158;2023-05-29T10:59:07;25.00;7.50
728;DHT22;347;48.780;9.158;2023-05-29T11:01:33;25.00;6.10
728;DHT22;347;48.780;9.158;2023-05-29T11:06:43;25.00;6.00
728;DHT22;347;48.780;9.158;2023-05-29T11:14:53;24.90;5.60
728;DHT22;347;48.780;9.158;2023-05-29T11:20:07;24.80;5.50
728;DHT22;347;48.780;9.158;2023-05-29T11:25:15;25.00;5.50
728;DHT22;347;48.780;9.158;2023-05-29T11:27:44;25.00;6.00
728;DHT22;347;48.780;9.158;2023-05-29T11:30:10;24.90;6.50
728;DHT22;347;48.780;9.158;2023-05-29T11:32:37;24.80;6.10
728;DHT22;347;48.780;9.158;2023-05-29T11:35:10;24.60;5.90
728;DHT22;347;48.780;9.158;2023-05-29T11:37:39;24.40;5.90
728;DHT22;347;48.780;9.158;2023-05-29T11:40:06;24.30;5.90
728;DHT22;347;48.780;9.158;2023-05-29T11:42:33;24.30;6.00
728;DHT22;347;48.780;9.158;2023-05-29T11:45:16;24.30;6.50
728;DHT22;347;48.780;9.158;2023-05-29T11:47:56;24.50;5.00
728;DHT22;347;48.780;9.158;2023-05-29T11:50:30;24.60;5.20
728;DHT22;347;48.780;9.158;2023-05-29T11:52:57;24.60;5.60
728;DHT22;347;48.780;9.158;2023-05-29T11:55:24;24.50;5.10
728;DHT22;347;48.780;9.158;2023-05-29T11:57:51;24.70;4.20
728;DHT22;347;48.780;9.158;2023-05-29T12:00:20;24.80;3.20
728;DHT22;347;48.780;9.158;2023-05-29T12:02:48;24.90;3.20
728;DHT22;347;48.780;9.158;2023-05-29T12:05:16;24.90;2.90
728;DHT22;347;48.780;9.158;2023-05-29T12:07:51;24.80;2.80
728;DHT22;347;48.780;9.158;2023-05-29T12:10:18;24.60;3.10
728;DHT22;347;48.780;9.158;2023-05-29T12:12:52;24.60;2.70
728;DHT22;347;48.780;9.158;2023-05-29T12:15:18;24.50;3.30
728;DHT22;347;48.780;9.158;2023-05-29T12:17:45;24.50;3.70
728;DHT22;347;48.780;9.158;2023-05-29T12:20:12;24.50;3.40
728;DHT22;347;48.780;9.158;2023-05-29T12:22:39;24.50;3.20
728;DHT22;347;48.780;9.158;2023-05-29T12:25:11;24.70;3.20
728;DHT22;347;48.780;9.158;2023-05-29T12:27:40;24.60;3.20
728;DHT22;347;48.780;9.158;2023-05-29T12:30:13;24.50;2.80
728;DHT22;347;48.780;9.158;2023-05-29T12:32:43;24.50;3.40
728;DHT22;347;48.780;9.158;2023-05-29T12:35:19;24.50;1.80
728;DHT22;347;48.780;9.158;2023-05-29T12:37:52;24.60;1.10
728;DHT22;347;48.780;9.158;2023-05-29T12:40:22;24.80;1.00
728;DHT22;347;48.780;9.158;2023-05-29T12:42:53;24.90;1.10
728;DHT22;347;48.780;9.158;2023-05-29T12:45:19;24.90;1.20
728;DHT22;347;48.780;9.158;2023-05-29T12:47:46;24.80;2.00
728;DHT22;347;48.780;9.158;2023-05-29T12:53:12;24.80;1.30
728;DHT22;347;48.780;9.158;2023-05-29T12:55:40;24.70;1.40
728;DHT22;347;48.780;9.158;2023-05-29T12:58:08;24.60;2.20
728;DHT22;347;48.780;9.158;2023-05-29T13:00:34;24.60;2.10
728;DHT22;347;48.780;9.158;2023-05-29T13:03:00;24.70;1.00
728;DHT22;347;48.780;9.158;2023-05-29T13:05:26;24.90;1.00
728;DHT22;347;48.780;9.158;2023-05-29T13:07:52;24.80;1.00
728;DHT22;347;48.780;9.158;2023-05-29T13:10:19;24.80;1.00
728;DHT22;347;48.780;9.158;2023-05-29T13:12:45;24.80;1.00
728;DHT22;347;48.780;9.158;2023-05-29T13:15:12;24.80;1.00
728;DHT22;347;48.780;9.158;2023-05-29T13:17:39;24.80;1.00
728;DHT22;347;48.780;9.158;2023-05-29T13:20:09;24.70;1.00
728;DHT22;347;48.780;9.158;2023-05-29T13:22:36;24.70;1.00
728;DHT22;347;48.780;9.158;2023-05-29T13:25:02;24.70;1.00
728;DHT22;347;48.780;9.158;2023-05-29T13:27:28;24.60;1.00
728;DHT22;347;48.780;9.158;2023-05-29T13:29:54;24.50;1.00
728;DHT22;347;48.780;9.158;2023-05-29T13:32:20;24.40;1.50
728;DHT22;347;48.780;9.158;2023-05-29T13:34:45;24.30;1.80
728;DHT22;347;48.780;9.158;2023-05-29T13:37:11;24.60;1.10
728;DHT22;347;48.780;9.158;2023-05-29T13:39:37;24.80;2.10
728;DHT22;347;48.780;9.158;2023-05-29T13:42:03;25.00;1.00
728;DHT22;347;48.780;9.158;2023-05-29T13:44:28;25.00;1.00
728;DHT22;347;48.780;9.158;2023-05-29T13:46:54;25.20;1.00
728;DHT22;347;48.780;9.158;2023-05-29T13:49:20;25.20;1.00
728;DHT22;347;48.780;9.158;2023-05-29T13:51:46;25.40;1.00
728;DHT22;347;48.780;9.158;2023-05-29T13:54:15;25.40;1.00
728;DHT22;347;48.780;9.158;2023-05-29T13:56:40;25.40;1.00
728;DHT22;347;48.780;9.158;2023-05-29T13:59:06;25.40;1.00
728;DHT22;347;48.780;9.158;2023-05-29T14:01:33;25.20;1.00
728;DHT22;347;48.780;9.158;2023-05-29T14:03:59;25.10;1.00
728;DHT22;347;48.780;9.158;2023-05-29T14:06:25;25.00;1.00
728;DHT22;347;48.780;9.158;2023-05-29T14:08:51;25.30;1.00
728;DHT22;347;48.780;9.158;2023-05-29T14:11:16;25.30;1.00
728;DHT22;347;48.780;9.158;2023-05-29T14:13:42;25.40;1.00
728;DHT22;347;48.780;9.158;2023-05-29T14:16:07;25.30;1.00
728;DHT22;347;48.780;9.158;2023-05-29T14:18:33;25.20;1.00
728;DHT22;347;48.780;9.158;2023-05-29T14:20:59;25.10;1.00
728;DHT22;347;48.780;9.158;2023-05-29T14:23:24;25.10;1.00
728;DHT22;347;48.780;9.158;2023-05-29T14:25:50;25.00;1.00
728;DHT22;347;48.780;9.158;2023-05-29T14:28:17;24.90;1.00
728;DHT22;347;48.780;9.158;2023-05-29T14:30:43;24.90;1.00
728;DHT22;347;48.780;9.158;2023-05-29T14:33:09;24.90;1.00
728;DHT22;347;48.780;9.158;2023-05-29T14:35:34;24.90;1.00
728;DHT22;347;48.780;9.158;2023-05-29T14:38:00;24.70;1.20
728;DHT22;347;48.780;9.158;2023-05-29T14:40:28;24.80;1.10
728;DHT22;347;48.780;9.158;2023-05-29T14:42:54;24.80;1.50
728;DHT22;347;48.780;9.158;2023-05-29T14:45:19;24.80;1.60
728;DHT22;347;48.780;9.158;2023-05-29T14:47:45;25.00;1.00
728;DHT22;347;48.780;9.158;2023-05-29T14:50:11;25.00;1.60
728;DHT22;347;48.780;9.158;2023-05-29T14:52:37;25.00;1.70
728;DHT22;347;48.780;9.158;2023-05-29T14:55:04;24.90;1.80
728;DHT22;347;48.780;9.158;2023-05-29T14:57:30;24.80;1.50
728;DHT22;347;48.780;9.158;2023-05-29T14:59:58;24.80;1.90
728;DHT22;347;48.780;9.158;2023-05-29T15:02:23;24.80;2.30
728;DHT22;347;48.780;9.158;2023-05-29T15:04:49;24.80;2.20
728;DHT22;347;48.780;9.158;2023-05-29T15:07:15;24.80;2.00
728;DHT22;347;48.780;9.158;2023-05-29T15:09:41;24.70;2.30
728;DHT22;347;48.780;9.158;2023-05-29T15:12:08;24.60;1.80
728;DHT22;347;48.780;9.158;2023-05-29T15:14:33;24.60;2.00
728;DHT22;347;48.780;9.158;2023-05-29T15:16:59;24.60;2.10
728;DHT22;347;48.780;9.158;2023-05-29T15:19:25;24.60;2.10
728;DHT22;347;48.780;9.158;2023-05-29T15:21:51;24.70;2.20
728;DHT22;347;48.780;9.158;2023-05-29T15:24:17;24.70;2.30
728;DHT22;347;48.780;9.158;2023-05-29T15:26:42;24.60;2.70
728;DHT22;347;48.780;9.158;2023-05-29T15:29:08;24.60;2.70
728;DHT22;347;48.780;9.158;2023-05-29T15:31:33;24.60;2.70
728;DHT22;347;48.780;9.158;2023-05-29T15:33:59;24.60;3.10
728;DHT22;347;48.780;9.158;2023-05-29T15:36:24;24.60;3.50
728;DHT22;347;48.780;9.158;2023-05-29T15:38:50;24.60;3.00
728;DHT22;347;48.780;9.158;2023-05-29T15:41:15;24.50;2.90
728;DHT22;347;48.780;9.158;2023-05-29T15:43:41;24.50;3.20
728;DHT22;347;48.780;9.158;2023-05-29T15:46:07;24.50;3.10
728;DHT22;347;48.780;9.158;2023-05-29T15:48:33;24.60;2.90
728;DHT22;347;48.780;9.158;2023-05-29T15:50:59;24.60;3.10
728;DHT22;347;48.780;9.158;2023-05-29T15:53:24;24.50;3.10
728;DHT22;347;48.780;9.158;2023-05-29T15:55:50;24.50;3.20
728;DHT22;347;48.780;9.158;2023-05-29T15:58:16;24.50;3.00
728;DHT22;347;48.780;9.158;2023-05-29T16:00:41;24.50;3.10
728;DHT22;347;48.780;9.158;2023-05-29T16:03:07;24.40;3.40
728;DHT22;347;48.780;9.158;2023-05-29T16:05:34;24.40;3.30
728;DHT22;347;48.780;9.158;2023-05-29T16:08:00;24.40;3.10
728;DHT22;347;48.780;9.158;2023-05-29T16:10:26;24.30;2.90
728;DHT22;347;48.780;9.158;2023-05-29T16:12:53;24.40;2.80
728;DHT22;347;48.780;9.158;2023-05-29T16:15:18;24.30;3.10
728;DHT22;347;48.780;9.158;2023-05-29T16:17:44;24.40;3.20
728;DHT22;347;48.780;9.158;2023-05-29T16:20:11;24.50;2.60
728;DHT22;347;48.780;9.158;2023-05-29T16:22:36;24.40;2.90
728;DHT22;347;48.780;9.158;2023-05-29T16:25:03;24.50;2.60
728;DHT22;347;48.780;9.158;2023-05-29T16:27:29;24.50;2.80
728;DHT22;347;48.780;9.158;2023-05-29T16:29:55;24.50;2.70
728;DHT22;347;48.780;9.158;2023-05-29T16:32:20;24.50;3.20
728;DHT22;347;48.780;9.158;2023-05-29T16:34:46;24.50;2.70
728;DHT22;347;48.780;9.158;2023-05-29T16:37:12;24.50;2.70
728;DHT22;347;48.780;9.158;2023-05-29T16:39:37;24.50;2.70
728;DHT22;347;48.780;9.158;2023-05-29T16:42:04;24.50;2.60
728;DHT22;347;48.780;9.158;2023-05-29T16:44:31;24.40;2.60
728;DHT22;347;48.780;9.158;2023-05-29T16:46:57;24.30;2.50
728;DHT22;347;48.780;9.158;2023-05-29T16:49:22;24.30;2.70
728;DHT22;347;48.780;9.158;2023-05-29T16:51:49;24.20;2.50
728;DHT22;347;48.780;9.158;2023-05-29T16:54:14;24.20;2.90
728;DHT22;347;48.780;9.158;2023-05-29T16:56:40;24.10;2.90
728;DHT22;347;48.780;9.158;2023-05-29T16:59:05;24.20;2.90
728;DHT22;347;48.780;9.158;2023-05-29T17:01:31;24.10;2.60
728;DHT22;347;48.780;9.158;2023-05-29T17:03:57;24.10;2.70
728;DHT22;347;48.780;9.158;2023-05-29T17:06:23;24.10;2.70
728;DHT22;347;48.780;9.158;2023-05-29T17:08:48;24.00;2.70
728;DHT22;347;48.780;9.158;2023-05-29T17:11:14;24.00;2.70